Time;durP1;ratioP1;P1;durP2;ratioP2;P2;SDS_P1;SDS_P2;PMS_P1;PMS_P2;Temp;Humidity;BMP_temperature;BMP_pressure;BME280_temperature;BME280_humidity;BME280_pressure;Samples;Min_cycle;Max_cycle;Signal;HPM_P1;HPM_P2
2023/02/04 00:00:10;;;;;;;16.73;8.70;;;-0.50;99.90;;;;;;4994822;28;20204;-73
2023/02/04 00:02:37;;;;;;;20.13;9.40;;;-0.60;99.90;;;;;;5012288;28;20208;-67
2023/02/04 00:05:04;;;;;;;17.60;8.70;;;-0.60;99.90;;;;;;4994990;28;20232;-72
2023/02/04 00:07:31;;;;;;;15.40;8.30;;;-0.60;99.90;;;;;;4994985;28;20213;-72
2023/02/04 00:09:58;;;;;;;15.50;9.00;;;-0.60;99.90;;;;;;5012445;28;20287;-73
2023/02/04 00:12:25;;;;;;;13.97;8.13;;;-0.60;99.90;;;;;;5012259;28;20216;-74
2023/02/04 00:14:52;;;;;;;15.23;8.57;;;-0.70;99.90;;;;;;4994685;28;20222;-68
2023/02/04 00:17:19;;;;;;;14.77;8.40;;;-0.80;99.90;;;;;;4994429;28;20640;-69
2023/02/04 00:19:45;;;;;;;15.23;8.30;;;-0.70;99.90;;;;;;4994893;28;20217;-76
2023/02/04 00:22:12;;;;;;;14.63;8.67;;;-0.70;99.90;;;;;;4994779;28;20660;-75
2023/02/04 00:24:41;;;;;;;13.93;7.63;;;-0.80;99.90;;;;;;4994579;28;20245;-75
2023/02/04 00:27:08;;;;;;;14.30;8.20;;;-0.80;99.90;;;;;;4995172;28;20663;-76
2023/02/04 00:29:35;;;;;;;16.30;8.73;;;-0.80;99.90;;;;;;4994432;28;20555;-76
2023/02/04 00:32:02;;;;;;;16.57;8.53;;;-0.80;99.90;;;;;;4994684;28;20200;-66
2023/02/04 00:34:29;;;;;;;14.67;8.53;;;-0.90;99.90;;;;;;4978447;28;20242;-64
2023/02/04 00:36:56;;;;;;;20.07;9.03;;;-0.90;99.90;;;;;;5012402;28;20200;-66
2023/02/04 00:39:23;;;;;;;15.67;8.70;;;-0.90;99.90;;;;;;5012490;28;20203;-70
2023/02/04 00:41:49;;;;;;;14.73;8.20;;;-0.90;99.90;;;;;;4995174;28;20201;-66
2023/02/04 00:44:16;;;;;;;15.33;8.60;;;-0.90;99.90;;;;;;4998253;28;20675;-76
2023/02/04 00:46:43;;;;;;;15.23;8.57;;;-0.90;99.90;;;;;;4998141;28;20588;-67
2023/02/04 00:49:10;;;;;;;15.00;8.23;;;-0.90;99.90;;;;;;5016005;28;20193;-65
2023/02/04 00:51:38;;;;;;;15.47;8.80;;;-0.90;99.90;;;;;;5015782;28;20205;-66
2023/02/04 00:54:06;;;;;;;14.57;8.07;;;-0.90;99.90;;;;;;5016104;28;20246;-71
2023/02/04 00:56:34;;;;;;;14.60;8.07;;;-1.00;99.90;;;;;;4998131;28;20199;-67
2023/02/04 00:59:01;;;;;;;14.93;8.03;;;-1.00;99.90;;;;;;5015667;28;20269;-73
2023/02/04 01:01:28;;;;;;;15.57;8.37;;;-0.90;99.90;;;;;;4997785;28;20202;-76
2023/02/04 01:03:55;;;;;;;14.87;8.10;;;-0.90;99.90;;;;;;4997997;28;20193;-75
2023/02/04 01:06:22;;;;;;;17.43;8.07;;;-0.90;99.90;;;;;;4997973;28;20203;-70
2023/02/04 01:08:49;;;;;;;17.10;8.97;;;-1.00;99.90;;;;;;4998256;28;20210;-72
2023/02/04 01:11:16;;;;;;;15.30;8.50;;;-0.90;99.90;;;;;;4997870;28;20557;-76
2023/02/04 01:13:43;;;;;;;16.13;8.83;;;-0.90;99.90;;;;;;4998131;28;20198;-76
2023/02/04 01:16:10;;;;;;;16.87;8.43;;;-0.90;99.90;;;;;;5015443;28;20200;-76
2023/02/04 01:18:37;;;;;;;18.73;8.90;;;-0.90;99.90;;;;;;4998036;28;20218;-76
2023/02/04 01:21:04;;;;;;;16.90;8.90;;;-1.00;99.90;;;;;;4997752;28;20193;-76
2023/02/04 01:23:31;;;;;;;14.57;7.63;;;-0.90;99.90;;;;;;4997590;28;20196;-74
2023/02/04 01:25:58;;;;;;;14.70;7.83;;;-0.90;99.90;;;;;;4997466;28;20205;-76
2023/02/04 01:28:25;;;;;;;15.47;8.20;;;-0.90;99.90;;;;;;4997585;28;20560;-73
2023/02/04 01:30:52;;;;;;;14.73;7.57;;;-0.90;99.90;;;;;;4997607;28;20281;-74
2023/02/04 01:33:19;;;;;;;13.77;7.80;;;-0.90;99.90;;;;;;4997366;28;20252;-73
2023/02/04 01:35:45;;;;;;;15.83;7.70;;;-0.90;99.90;;;;;;5014768;28;20209;-73
2023/02/04 01:38:12;;;;;;;14.77;8.23;;;-0.90;99.90;;;;;;4997414;28;20201;-74
2023/02/04 01:40:40;;;;;;;13.53;7.70;;;-0.90;99.90;;;;;;4997680;28;20239;-71
2023/02/04 01:43:08;;;;;;;13.00;7.57;;;-0.90;99.90;;;;;;5016383;28;20210;-75
2023/02/04 01:45:35;;;;;;;12.93;7.47;;;-0.90;99.90;;;;;;5018381;28;20702;-86
2023/02/04 01:48:04;;;;;;;13.13;7.43;;;-0.90;99.90;;;;;;4998339;28;20202;-80
2023/02/04 01:50:32;;;;;;;14.20;7.30;;;-0.90;99.90;;;;;;4997551;28;20197;-80
2023/02/04 01:52:59;;;;;;;16.20;7.53;;;-0.90;99.90;;;;;;4997310;28;20327;-78
2023/02/04 01:55:30;;;;;;;16.20;8.07;;;-1.00;99.90;;;;;;4997232;28;20583;-77
2023/02/04 01:57:57;;;;;;;15.67;7.60;;;-0.90;99.90;;;;;;4997196;28;20208;-77
2023/02/04 02:00:26;;;;;;;11.87;7.60;;;-0.90;99.90;;;;;;4998007;28;20680;-71
2023/02/04 02:02:57;;;;;;;11.93;7.17;;;-0.90;99.90;;;;;;4997099;28;20244;-70
2023/02/04 02:05:30;;;;;;;13.23;7.50;;;-0.90;99.90;;;;;;5015078;28;20206;-64
2023/02/04 02:08:00;;;;;;;11.73;7.00;;;-0.80;99.90;;;;;;4997106;28;20524;-63
2023/02/04 02:10:28;;;;;;;12.73;7.33;;;-0.90;99.90;;;;;;4996969;28;20206;-73
2023/02/04 02:12:56;;;;;;;13.17;7.37;;;-0.90;99.90;;;;;;5014250;28;20190;-84
2023/02/04 02:15:23;;;;;;;16.30;7.47;;;-0.90;99.90;;;;;;4996758;28;20311;-75
2023/02/04 02:17:51;;;;;;;12.60;6.77;;;-0.90;99.90;;;;;;4996728;28;20255;-78
2023/02/04 02:20:22;;;;;;;13.70;7.43;;;-0.90;99.90;;;;;;4996677;28;20213;-68
2023/02/04 02:23:13;;;;;;;12.27;7.07;;;-0.90;99.90;;;;;;4996765;28;20219;-81
2023/02/04 02:25:40;;;;;;;13.90;7.67;;;-0.90;99.90;;;;;;4996364;28;20206;-76
2023/02/04 02:28:12;;;;;;;12.87;7.00;;;-0.90;99.90;;;;;;5013854;28;20220;-64
2023/02/04 02:30:41;;;;;;;11.90;7.10;;;-0.80;99.90;;;;;;5014286;28;20254;-78
2023/02/04 02:33:08;;;;;;;12.83;7.10;;;-0.90;99.90;;;;;;4996517;28;20207;-83
2023/02/04 02:35:35;;;;;;;14.50;6.90;;;-0.80;99.90;;;;;;4996874;28;20227;-77
2023/02/04 02:38:01;;;;;;;13.10;7.13;;;-0.80;99.90;;;;;;5015633;28;20190;-78
2023/02/04 02:40:28;;;;;;;12.77;7.40;;;-0.90;99.90;;;;;;4998778;28;20208;-71
2023/02/04 02:42:56;;;;;;;13.67;7.27;;;-0.90;99.90;;;;;;5013636;28;20567;-72
2023/02/04 02:45:25;;;;;;;11.63;6.50;;;-0.90;99.90;;;;;;4996141;28;20707;-72
2023/02/04 02:47:55;;;;;;;11.67;6.83;;;-0.90;99.90;;;;;;4996055;28;20199;-76
2023/02/04 02:50:25;;;;;;;13.83;7.37;;;-0.90;99.90;;;;;;4995844;28;20266;-77
2023/02/04 02:52:53;;;;;;;12.93;6.37;;;-0.90;99.90;;;;;;4995918;28;20201;-71
2023/02/04 02:55:23;;;;;;;12.63;6.27;;;-0.90;99.90;;;;;;4995810;28;20218;-76
2023/02/04 02:57:52;;;;;;;11.00;6.27;;;-0.80;99.90;;;;;;4995639;28;20201;-74
2023/02/04 03:00:28;;;;;;;13.27;6.97;;;-0.80;99.90;;;;;;4995740;28;20560;-72
2023/02/04 03:03:02;;;;;;;10.90;6.27;;;-0.90;99.90;;;;;;5013294;28;20296;-77
2023/02/04 03:05:32;;;;;;;10.20;6.20;;;-0.90;99.90;;;;;;4995657;28;20217;-79
2023/02/04 03:07:59;;;;;;;12.10;6.20;;;-0.80;99.90;;;;;;4995847;28;20274;-77
2023/02/04 03:10:26;;;;;;;11.03;6.30;;;-0.90;99.90;;;;;;4995658;28;20679;-78
2023/02/04 03:12:53;;;;;;;11.37;6.20;;;-0.80;99.90;;;;;;4996342;28;20557;-78
2023/02/04 03:15:20;;;;;;;11.50;6.40;;;-0.90;99.90;;;;;;4995318;28;20212;-79
2023/02/04 03:17:48;;;;;;;12.27;6.27;;;-0.90;99.90;;;;;;4995550;28;20189;-79
2023/02/04 03:20:15;;;;;;;13.47;6.67;;;-0.80;99.90;;;;;;4995721;28;20195;-77
2023/02/04 03:22:42;;;;;;;13.30;6.57;;;-0.80;99.90;;;;;;4995936;28;20327;-79
2023/02/04 03:25:09;;;;;;;13.53;6.17;;;-0.80;99.90;;;;;;5013053;28;20210;-78
2023/02/04 03:27:35;;;;;;;12.63;6.33;;;-0.80;99.90;;;;;;5013122;28;20195;-79
2023/02/04 03:30:03;;;;;;;12.40;6.00;;;-0.80;99.90;;;;;;4995544;28;20205;-79
2023/02/04 03:32:30;;;;;;;10.37;5.93;;;-0.70;99.90;;;;;;5012889;28;20312;-69
2023/02/04 03:34:56;;;;;;;13.27;6.00;;;-0.70;99.90;;;;;;5013015;28;20254;-64
2023/02/04 03:37:23;;;;;;;11.47;6.17;;;-0.70;99.90;;;;;;4995570;28;20199;-65
2023/02/04 03:39:50;;;;;;;11.90;6.80;;;-0.70;99.90;;;;;;4995110;28;20199;-64
2023/02/04 03:42:17;;;;;;;11.93;6.40;;;-0.70;99.90;;;;;;4995168;28;20182;-62
2023/02/04 03:44:44;;;;;;;10.47;5.77;;;-0.70;99.90;;;;;;4994830;28;20204;-67
2023/02/04 03:47:11;;;;;;;12.47;6.30;;;-0.70;99.90;;;;;;5012513;28;20254;-76
2023/02/04 03:49:37;;;;;;;9.67;5.70;;;-0.70;99.90;;;;;;4995239;28;20197;-66
2023/02/04 03:52:05;;;;;;;9.87;5.57;;;-0.70;99.90;;;;;;4995073;28;20201;-65
2023/02/04 03:54:32;;;;;;;12.33;6.30;;;-0.80;99.90;;;;;;4994823;28;20235;-74
2023/02/04 03:56:58;;;;;;;8.90;5.70;;;-0.80;99.90;;;;;;4978786;28;20217;-63
2023/02/04 03:59:25;;;;;;;10.57;5.47;;;-0.80;99.90;;;;;;5012905;28;20216;-67
2023/02/04 04:01:52;;;;;;;9.93;5.23;;;-0.70;99.90;;;;;;4995312;28;20221;-65
2023/02/04 04:04:19;;;;;;;9.73;5.50;;;-0.70;99.90;;;;;;4994918;28;20240;-71
2023/02/04 04:06:46;;;;;;;11.07;5.47;;;-0.80;99.90;;;;;;4994520;28;20549;-70
2023/02/04 04:09:13;;;;;;;7.90;5.43;;;-0.80;99.90;;;;;;4994799;28;20262;-72
2023/02/04 04:11:40;;;;;;;12.93;6.33;;;-0.80;99.90;;;;;;5012463;28;20218;-72
2023/02/04 04:14:07;;;;;;;10.23;6.13;;;-0.80;99.90;;;;;;4994667;28;20247;-73
2023/02/04 04:16:33;;;;;;;10.70;6.47;;;-0.80;99.90;;;;;;5012295;28;20228;-72
2023/02/04 04:19:00;;;;;;;10.93;6.33;;;-1.00;99.90;;;;;;4998763;28;20534;-73
2023/02/04 04:21:27;;;;;;;11.13;6.50;;;-1.10;99.90;;;;;;4998666;28;20202;-72
2023/02/04 04:23:54;;;;;;;9.80;5.90;;;-1.00;99.90;;;;;;4998627;28;20190;-72
2023/02/04 04:26:21;;;;;;;11.23;5.70;;;-1.10;99.90;;;;;;4998849;28;20211;-74
2023/02/04 04:28:48;;;;;;;6.90;4.70;;;-1.20;99.90;;;;;;4998405;28;20663;-76
2023/02/04 04:31:14;;;;;;;9.00;5.17;;;-1.20;99.90;;;;;;4998692;28;20205;-70
2023/02/04 04:33:41;;;;;;;10.20;5.07;;;-1.30;99.90;;;;;;4998427;28;20203;-71
2023/02/04 04:36:08;;;;;;;9.60;5.10;;;-1.20;99.90;;;;;;5015922;28;20230;-70
2023/02/04 04:38:35;;;;;;;10.57;5.37;;;-1.20;99.90;;;;;;5016135;28;20257;-69
2023/02/04 04:41:02;;;;;;;8.70;4.90;;;-1.30;99.90;;;;;;4998391;28;20671;-72
2023/02/04 04:43:29;;;;;;;10.97;5.13;;;-1.30;99.90;;;;;;4998587;28;20208;-69
2023/02/04 04:45:56;;;;;;;9.57;4.87;;;-1.40;99.90;;;;;;5015562;28;20222;-73
2023/02/04 04:48:24;;;;;;;10.33;5.90;;;-1.40;99.90;;;;;;5015738;28;20192;-71
2023/02/04 04:50:51;;;;;;;9.90;5.47;;;-1.40;99.90;;;;;;5015826;28;20245;-73
2023/02/04 04:53:18;;;;;;;10.17;5.10;;;-1.40;99.90;;;;;;4998569;28;20278;-71
2023/02/04 04:55:44;;;;;;;10.77;5.60;;;-1.30;99.90;;;;;;4997979;28;20214;-66
2023/02/04 04:58:11;;;;;;;11.27;5.23;;;-1.30;99.90;;;;;;5016188;28;20194;-66
2023/02/04 05:00:38;;;;;;;9.33;5.07;;;-1.30;99.90;;;;;;4998132;28;21002;-66
2023/02/04 05:03:05;;;;;;;10.13;5.30;;;-1.20;99.90;;;;;;5015317;28;20256;-68
2023/02/04 05:05:33;;;;;;;9.43;5.40;;;-1.20;99.90;;;;;;4998112;28;20196;-67
2023/02/04 05:07:59;;;;;;;11.40;5.23;;;-1.20;99.90;;;;;;4998160;28;20292;-73
2023/02/04 05:10:26;;;;;;;7.93;4.83;;;-1.10;99.90;;;;;;4998423;28;20196;-77
2023/02/04 05:12:53;;;;;;;10.30;5.70;;;-1.10;99.90;;;;;;4997815;28;20635;-77
2023/02/04 05:15:20;;;;;;;10.43;5.67;;;-1.20;99.90;;;;;;4997546;28;20222;-66
2023/02/04 05:17:47;;;;;;;12.37;5.60;;;-1.10;99.90;;;;;;4997659;28;20193;-67
2023/02/04 05:20:14;;;;;;;9.23;5.07;;;-1.10;99.90;;;;;;4997823;28;20196;-74
2023/02/04 05:22:41;;;;;;;11.33;5.90;;;-1.10;99.90;;;;;;4997480;28;20692;-66
2023/02/04 05:25:08;;;;;;;8.30;5.33;;;-1.10;99.90;;;;;;5015077;28;20278;-72
2023/02/04 05:27:35;;;;;;;9.30;5.40;;;-1.10;99.90;;;;;;4997082;28;20663;-68
2023/02/04 05:30:01;;;;;;;9.57;5.23;;;-1.00;99.90;;;;;;4997374;28;20600;-67
2023/02/04 05:32:28;;;;;;;12.43;6.03;;;-1.00;99.90;;;;;;4997311;28;20204;-67
2023/02/04 05:34:55;;;;;;;9.80;5.60;;;-0.90;99.90;;;;;;5014731;28;20205;-67
2023/02/04 05:37:22;;;;;;;9.33;5.40;;;-0.90;99.90;;;;;;4997561;28;20208;-65
2023/02/04 05:39:49;;;;;;;10.00;5.87;;;-0.90;99.90;;;;;;5015001;28;20195;-66
2023/02/04 05:42:16;;;;;;;11.40;5.87;;;-0.90;99.90;;;;;;5014920;28;20191;-66
2023/02/04 05:44:42;;;;;;;9.20;5.40;;;-0.90;99.90;;;;;;4997221;28;20187;-66
2023/02/04 05:47:09;;;;;;;9.60;5.37;;;-0.90;99.90;;;;;;4997067;28;20240;-76
2023/02/04 05:49:36;;;;;;;10.33;5.60;;;-0.80;99.90;;;;;;5014762;28;20220;-76
2023/02/04 05:52:03;;;;;;;8.70;5.00;;;-0.80;99.90;;;;;;4997103;28;20894;-76
2023/02/04 05:54:30;;;;;;;9.23;5.30;;;-0.80;99.90;;;;;;5014507;28;20654;-75
2023/02/04 05:56:57;;;;;;;9.50;5.00;;;-0.80;99.90;;;;;;5014658;28;20225;-77
2023/02/04 05:59:24;;;;;;;9.17;5.33;;;-0.80;99.90;;;;;;5014626;28;20199;-75
2023/02/04 06:01:51;;;;;;;9.77;4.60;;;-0.70;99.90;;;;;;5014402;28;20249;-66
2023/02/04 06:04:18;;;;;;;9.77;5.20;;;-0.70;99.90;;;;;;4996910;28;20198;-69
2023/02/04 06:06:45;;;;;;;8.77;4.53;;;-0.80;99.90;;;;;;4996561;28;20213;-68
2023/02/04 06:09:12;;;;;;;8.50;4.83;;;-0.80;99.90;;;;;;4996647;28;20195;-67
2023/02/04 06:11:39;;;;;;;9.13;4.60;;;-0.70;99.90;;;;;;4996025;28;20209;-67
2023/02/04 06:14:06;;;;;;;7.70;4.67;;;-0.80;99.90;;;;;;5014301;28;20552;-75
2023/02/04 06:16:33;;;;;;;10.50;4.70;;;-0.70;99.90;;;;;;5012914;28;20231;-73
2023/02/04 06:18:59;;;;;;;10.07;4.50;;;-0.70;99.90;;;;;;5014229;28;20267;-74
2023/02/04 06:21:26;;;;;;;7.03;4.23;;;-0.70;99.90;;;;;;4996694;28;20201;-76
2023/02/04 06:23:53;;;;;;;8.67;4.47;;;-0.80;99.90;;;;;;5014284;28;20195;-72
2023/02/04 06:26:20;;;;;;;7.87;4.40;;;-0.80;99.90;;;;;;5015551;28;20207;-78
2023/02/04 06:28:47;;;;;;;7.37;4.23;;;-0.80;99.90;;;;;;4996821;28;20198;-77
2023/02/04 06:31:14;;;;;;;7.93;4.40;;;-0.80;99.90;;;;;;4996486;28;20202;-75
2023/02/04 06:33:41;;;;;;;8.97;4.50;;;-0.90;99.90;;;;;;5012670;28;20636;-75
2023/02/04 06:36:08;;;;;;;8.53;4.33;;;-0.90;99.90;;;;;;4996113;28;20217;-76
2023/02/04 06:38:35;;;;;;;8.67;4.47;;;-0.90;99.90;;;;;;4996271;28;20208;-68
2023/02/04 06:41:01;;;;;;;9.13;4.90;;;-0.90;99.90;;;;;;4995694;28;20576;-77
2023/02/04 06:43:28;;;;;;;8.77;4.60;;;-0.90;99.90;;;;;;4996179;28;20189;-74
2023/02/04 06:45:55;;;;;;;7.33;4.07;;;-0.90;99.90;;;;;;5013323;28;20621;-72
2023/02/04 06:48:25;;;;;;;8.33;4.77;;;-0.90;99.90;;;;;;4996068;28;20182;-73
2023/02/04 06:50:52;;;;;;;12.83;4.90;;;-1.00;99.90;;;;;;5013805;28;20200;-75
2023/02/04 06:53:19;;;;;;;9.40;4.80;;;-1.00;99.90;;;;;;5012631;28;20552;-71
2023/02/04 06:55:46;;;;;;;8.13;4.63;;;-1.10;99.90;;;;;;5013575;28;20212;-75
2023/02/04 06:58:12;;;;;;;8.67;4.83;;;-1.20;99.90;;;;;;5012561;28;20209;-76
2023/02/04 07:00:39;;;;;;;7.90;4.80;;;-1.30;99.90;;;;;;4995737;28;20549;-74
2023/02/04 07:03:06;;;;;;;8.53;4.47;;;-1.30;99.90;;;;;;5013469;28;20211;-75
2023/02/04 07:05:33;;;;;;;7.80;4.63;;;-1.30;99.90;;;;;;5013596;28;20559;-72
2023/02/04 07:08:00;;;;;;;10.73;4.37;;;-1.40;99.90;;;;;;5013541;28;20194;-70
2023/02/04 07:10:27;;;;;;;6.87;4.20;;;-1.40;99.90;;;;;;5013235;28;20665;-66
2023/02/04 07:12:54;;;;;;;10.30;4.33;;;-1.40;99.90;;;;;;4995580;28;20626;-67
2023/02/04 07:15:21;;;;;;;10.03;3.93;;;-1.40;99.90;;;;;;4995093;28;20213;-75
2023/02/04 07:17:48;;;;;;;7.87;4.13;;;-1.40;99.90;;;;;;4995497;28;20293;-70
2023/02/04 07:20:15;;;;;;;7.83;4.13;;;-1.40;99.90;;;;;;4995520;28;20203;-67
2023/02/04 07:22:41;;;;;;;8.63;4.13;;;-1.40;99.90;;;;;;4995417;28;20304;-77
2023/02/04 07:25:10;;;;;;;8.53;4.10;;;-1.30;99.90;;;;;;5012006;28;20311;-72
2023/02/04 07:27:37;;;;;;;8.43;3.93;;;-1.30;99.90;;;;;;4996414;28;20541;-78
2023/02/04 07:30:04;;;;;;;8.17;4.37;;;-1.30;99.90;;;;;;4995621;28;20238;-65
2023/02/04 07:32:32;;;;;;;8.17;4.00;;;-1.40;99.90;;;;;;4995409;28;20210;-66
2023/02/04 07:34:59;;;;;;;7.43;4.13;;;-1.30;99.90;;;;;;4995176;28;20204;-66
2023/02/04 07:37:26;;;;;;;6.87;4.23;;;-1.50;99.90;;;;;;5011592;28;20258;-65
2023/02/04 07:39:53;;;;;;;7.53;3.93;;;-1.50;99.90;;;;;;4994856;28;20201;-80
2023/02/04 07:42:20;;;;;;;8.40;4.57;;;-1.50;99.90;;;;;;5013445;28;20196;-69
2023/02/04 07:44:47;;;;;;;9.00;4.50;;;-1.50;99.90;;;;;;4994750;28;20293;-77
2023/02/04 07:47:14;;;;;;;7.30;4.03;;;-1.50;99.90;;;;;;4994812;28;20251;-77
2023/02/04 07:49:41;;;;;;;7.83;4.27;;;-1.50;99.90;;;;;;4979492;28;20216;-67
2023/02/04 07:52:08;;;;;;;6.30;3.77;;;-1.40;99.90;;;;;;4994961;28;20202;-67
2023/02/04 07:54:35;;;;;;;7.40;3.60;;;-1.50;99.90;;;;;;4994824;28;20696;-78
2023/02/04 07:57:02;;;;;;;6.90;3.70;;;-1.60;99.90;;;;;;5012920;28;20241;-69
2023/02/04 07:59:29;;;;;;;6.20;3.50;;;-1.50;99.90;;;;;;4994949;28;20202;-77
2023/02/04 08:01:56;;;;;;;5.97;3.30;;;-1.20;99.90;;;;;;5012489;28;20341;-76
2023/02/04 08:04:22;;;;;;;5.90;3.10;;;-0.80;99.90;;;;;;4995531;28;20199;-78
2023/02/04 08:06:49;;;;;;;6.17;3.00;;;-0.30;99.90;;;;;;4994985;28;20205;-75
2023/02/04 08:09:16;;;;;;;5.57;2.90;;;0.20;99.90;;;;;;4995220;28;20202;-77
2023/02/04 08:11:43;;;;;;;5.67;2.80;;;0.30;99.90;;;;;;4994994;28;20215;-71
2023/02/04 08:14:10;;;;;;;6.73;2.80;;;0.60;99.90;;;;;;5012705;28;20201;-75
2023/02/04 08:16:37;;;;;;;5.20;2.70;;;0.60;99.90;;;;;;4994736;28;20236;-77
2023/02/04 08:19:04;;;;;;;9.23;3.10;;;0.90;99.90;;;;;;5011236;28;20269;-70
2023/02/04 08:21:31;;;;;;;6.47;2.60;;;1.00;99.90;;;;;;4994520;28;20813;-78
2023/02/04 08:23:57;;;;;;;4.50;2.70;;;1.10;99.90;;;;;;5012581;28;20202;-73
2023/02/04 08:26:24;;;;;;;4.60;2.40;;;1.00;99.90;;;;;;5011307;28;20211;-78
2023/02/04 08:28:51;;;;;;;4.50;2.53;;;1.10;99.90;;;;;;5012784;28;20215;-69
2023/02/04 08:31:18;;;;;;;4.77;2.60;;;1.20;99.90;;;;;;5011341;28;20204;-74
2023/02/04 08:33:45;;;;;;;5.13;2.60;;;1.20;99.90;;;;;;4994853;28;20223;-72
2023/02/04 08:36:12;;;;;;;4.83;2.30;;;1.00;99.90;;;;;;4994480;28;20309;-74
2023/02/04 08:38:40;;;;;;;3.70;2.30;;;1.00;99.90;;;;;;4994869;28;20254;-72
2023/02/04 08:41:07;;;;;;;4.23;2.10;;;1.00;99.90;;;;;;5012574;28;20217;-72
2023/02/04 08:43:33;;;;;;;3.83;2.20;;;1.10;99.90;;;;;;5012265;28;20208;-73
2023/02/04 08:46:00;;;;;;;5.23;2.27;;;1.30;99.90;;;;;;5012166;28;20228;-79
2023/02/04 08:48:27;;;;;;;3.47;2.23;;;1.20;99.90;;;;;;5013529;28;20190;-80
2023/02/04 08:50:54;;;;;;;6.23;2.37;;;1.10;99.90;;;;;;4997270;28;20241;-76
2023/02/04 08:53:21;;;;;;;3.70;2.30;;;1.20;99.90;;;;;;4995348;28;20258;-79
2023/02/04 08:55:48;;;;;;;3.57;2.07;;;1.30;99.90;;;;;;5011371;28;20198;-75
2023/02/04 08:58:15;;;;;;;5.00;2.13;;;1.30;99.90;;;;;;5010578;28;20200;-77
2023/02/04 09:00:42;;;;;;;4.43;2.40;;;1.00;99.90;;;;;;5011950;28;20200;-76
2023/02/04 09:03:08;;;;;;;2.90;2.00;;;1.00;99.90;;;;;;4995273;28;20224;-70
2023/02/04 09:05:35;;;;;;;3.43;1.97;;;0.90;99.90;;;;;;5015600;28;20653;-77
2023/02/04 09:08:03;;;;;;;3.60;2.33;;;1.00;99.90;;;;;;5015566;28;20188;-75
2023/02/04 09:10:30;;;;;;;2.83;2.07;;;0.80;99.90;;;;;;5015661;28;20298;-76
2023/02/04 09:12:57;;;;;;;3.23;1.80;;;0.50;99.90;;;;;;4998072;28;20206;-73
2023/02/04 09:15:24;;;;;;;2.83;1.70;;;0.30;99.90;;;;;;4997005;28;20203;-77
2023/02/04 09:18:03;;;;;;;4.37;2.00;;;0.40;99.90;;;;;;5013952;28;20228;-73
2023/02/04 09:20:30;;;;;;;3.57;1.50;;;0.30;99.90;;;;;;4998007;28;20196;-76
2023/02/04 09:22:57;;;;;;;1.90;1.50;;;0.20;99.90;;;;;;5015234;28;20201;-77
2023/02/04 09:25:24;;;;;;;2.27;1.50;;;0.10;99.90;;;;;;4997671;28;20209;-75
2023/02/04 09:27:51;;;;;;;3.17;1.83;;;0.10;99.90;;;;;;4997505;28;20206;-80
2023/02/04 09:30:18;;;;;;;3.13;1.70;;;-0.10;99.90;;;;;;4997434;28;20250;-76
2023/02/04 09:32:45;;;;;;;3.43;1.60;;;0.00;99.90;;;;;;4997614;28;20197;-82
2023/02/04 09:35:12;;;;;;;3.20;1.53;;;0.10;99.90;;;;;;5016391;28;20598;-82
2023/02/04 09:37:39;;;;;;;2.23;1.47;;;0.10;99.90;;;;;;4998234;28;20733;-67
2023/02/04 09:40:06;;;;;;;2.80;1.43;;;0.20;99.90;;;;;;5015721;28;20525;-68
2023/02/04 09:42:33;;;;;;;2.00;1.40;;;0.10;99.90;;;;;;4996905;28;20654;-70
2023/02/04 09:45:02;;;;;;;3.10;1.60;;;0.10;99.90;;;;;;4996665;28;20190;-76
2023/02/04 09:47:29;;;;;;;3.13;1.37;;;0.10;99.90;;;;;;4996984;28;20203;-76
2023/02/04 09:49:56;;;;;;;2.47;1.40;;;0.10;99.90;;;;;;5014827;28;20275;-77
2023/02/04 09:52:24;;;;;;;1.80;1.40;;;0.10;99.90;;;;;;4997348;28;20210;-69
2023/02/04 09:54:51;;;;;;;2.23;1.33;;;0.20;99.90;;;;;;5013603;28;20288;-75
2023/02/04 09:57:19;;;;;;;3.40;1.80;;;0.20;99.90;;;;;;4996817;28;20566;-68
2023/02/04 09:59:46;;;;;;;2.03;1.30;;;0.30;99.90;;;;;;5014488;28;20194;-74
2023/02/04 10:02:23;;;;;;;3.80;1.90;;;0.30;99.90;;;;;;4997013;28;20220;-76
2023/02/04 10:04:56;;;;;;;2.77;1.60;;;0.20;99.90;;;;;;4996856;28;20208;-80
2023/02/04 10:07:25;;;;;;;2.17;1.50;;;0.10;99.90;;;;;;5013120;28;20199;-80
2023/02/04 10:09:53;;;;;;;2.37;1.63;;;0.20;99.90;;;;;;4996463;28;20574;-74
2023/02/04 10:12:21;;;;;;;2.27;1.47;;;0.10;99.90;;;;;;5013484;28;20189;-81
2023/02/04 10:14:48;;;;;;;3.43;1.70;;;0.20;99.90;;;;;;4996151;28;20199;-80
2023/02/04 10:17:20;;;;;;;4.13;2.00;;;0.20;99.90;;;;;;4996854;28;20220;-72
2023/02/04 10:19:47;;;;;;;3.27;1.77;;;0.30;99.90;;;;;;5014295;28;20395;-69
2023/02/04 10:22:20;;;;;;;2.53;1.80;;;0.60;99.90;;;;;;4996436;28;20203;-70
2023/02/04 10:24:47;;;;;;;2.73;1.70;;;0.70;99.90;;;;;;4996609;28;20603;-74
2023/02/04 10:27:15;;;;;;;4.30;2.23;;;0.80;99.90;;;;;;4996939;28;20206;-73
2023/02/04 10:29:53;;;;;;;2.70;1.70;;;0.80;99.90;;;;;;4996390;28;20202;-69
2023/02/04 10:32:26;;;;;;;3.67;2.00;;;0.90;99.90;;;;;;4996274;28;20200;-65
2023/02/04 10:34:58;;;;;;;3.60;1.90;;;0.90;99.90;;;;;;5013610;28;20250;-65
2023/02/04 10:37:25;;;;;;;4.20;1.60;;;0.80;99.90;;;;;;5013770;28;20224;-74
2023/02/04 10:39:52;;;;;;;2.93;1.80;;;0.80;99.90;;;;;;5012729;28;20199;-66
2023/02/04 10:42:25;;;;;;;2.93;1.90;;;0.70;99.90;;;;;;5012513;28;20202;-75
2023/02/04 10:44:52;;;;;;;4.70;2.03;;;0.70;99.90;;;;;;4996172;28;20228;-68
2023/02/04 10:47:22;;;;;;;3.43;2.10;;;0.90;99.90;;;;;;4995899;28;20769;-65
2023/02/04 10:49:58;;;;;;;4.33;1.90;;;0.70;99.90;;;;;;5013498;28;20195;-66
2023/02/04 10:52:40;;;;;;;3.83;2.23;;;0.50;99.90;;;;;;4995852;28;20575;-66
2023/02/04 10:55:19;;;;;;;4.67;2.30;;;0.50;99.90;;;;;;5012146;28;20200;-66
2023/02/04 10:57:48;;;;;;;3.83;2.03;;;0.50;99.90;;;;;;4996191;28;20656;-66
2023/02/04 11:00:21;;;;;;;4.17;1.97;;;0.40;99.90;;;;;;5013220;28;20548;-63
2023/02/04 11:03:03;;;;;;;3.67;1.97;;;0.10;99.90;;;;;;5012083;28;20584;-67
2023/02/04 11:05:32;;;;;;;4.23;2.20;;;0.00;99.90;;;;;;4996058;28;20194;-71
2023/02/04 11:08:00;;;;;;;5.40;1.90;;;-0.10;99.90;;;;;;4995790;28;20200;-66
2023/02/04 11:10:32;;;;;;;4.73;2.00;;;-0.10;99.90;;;;;;4995727;28;20297;-75
2023/02/04 11:13:01;;;;;;;3.90;2.03;;;0.00;99.90;;;;;;5012055;28;20221;-76
2023/02/04 11:15:47;;;;;;;5.13;2.20;;;0.20;99.90;;;;;;5013247;28;20537;-76
2023/02/04 11:18:19;;;;;;;3.97;2.00;;;0.20;99.90;;;;;;5013698;28;20224;-70
2023/02/04 11:20:55;;;;;;;4.53;2.20;;;0.30;99.90;;;;;;5013097;28;20191;-72
2023/02/04 11:23:24;;;;;;;2.70;1.80;;;0.30;99.90;;;;;;4995467;28;20203;-72
2023/02/04 11:26:20;;;;;;;4.37;1.60;;;0.20;99.90;;;;;;4995134;28;20210;-79
2023/02/04 11:28:59;;;;;;;2.57;1.60;;;0.20;99.90;;;;;;4995670;28;20203;-73
2023/02/04 11:31:31;;;;;;;3.53;1.80;;;0.40;99.90;;;;;;4995682;28;20210;-82
2023/02/04 11:34:09;;;;;;;3.20;2.00;;;0.50;99.90;;;;;;5011962;28;20192;-82
2023/02/04 11:37:00;;;;;;;3.87;2.20;;;0.40;99.90;;;;;;4995232;28;20197;-81
2023/02/04 11:39:38;;;;;;;4.40;2.37;;;0.30;99.90;;;;;;5011612;28;20650;-78
2023/02/04 11:42:16;;;;;;;4.43;2.10;;;0.10;99.90;;;;;;4995286;28;20198;-80
2023/02/04 11:44:50;;;;;;;4.47;2.03;;;0.00;99.90;;;;;;4995726;28;20203;-78
2023/02/04 11:47:17;;;;;;;3.73;2.10;;;0.00;99.90;;;;;;4994726;28;20230;-77
2023/02/04 11:49:51;;;;;;;4.47;2.10;;;0.10;99.90;;;;;;4995329;28;20676;-78
2023/02/04 11:52:20;;;;;;;4.00;1.97;;;0.20;99.90;;;;;;5011646;28;20199;-78
2023/02/04 11:54:58;;;;;;;3.43;1.93;;;0.20;99.90;;;;;;5012501;28;20194;-80
2023/02/04 11:57:26;;;;;;;4.03;2.20;;;0.40;99.90;;;;;;4995805;28;20229;-84
2023/02/04 11:59:54;;;;;;;5.13;2.50;;;0.40;99.90;;;;;;5018662;28;20207;-77
2023/02/04 12:02:24;;;;;;;4.97;2.43;;;0.20;99.90;;;;;;4997829;28;20273;-76
2023/02/04 12:05:10;;;;;;;5.20;3.00;;;0.30;99.90;;;;;;4995876;28;20219;-83
2023/02/04 12:07:37;;;;;;;7.30;2.60;;;0.40;99.90;;;;;;4995610;28;20200;-81
2023/02/04 12:10:15;;;;;;;5.40;2.67;;;0.30;99.90;;;;;;4995771;28;20200;-75
2023/02/04 12:12:56;;;;;;;5.50;2.90;;;0.20;99.90;;;;;;4995265;28;20330;-79
2023/02/04 12:15:32;;;;;;;6.53;2.80;;;0.30;99.90;;;;;;4995330;28;20199;-78
2023/02/04 12:18:01;;;;;;;4.27;2.60;;;0.30;99.90;;;;;;4995511;28;20711;-83
2023/02/04 12:20:28;;;;;;;5.10;2.60;;;0.10;99.90;;;;;;4995761;28;20195;-83
2023/02/04 12:22:55;;;;;;;6.93;3.20;;;0.10;99.90;;;;;;5016496;28;20255;-79
2023/02/04 12:25:23;;;;;;;5.10;2.77;;;0.30;99.90;;;;;;4995826;28;20199;-82
2023/02/04 12:27:50;;;;;;;4.17;2.67;;;1.00;99.90;;;;;;4995193;28;20203;-68
2023/02/04 12:30:19;;;;;;;5.33;2.60;;;1.10;99.90;;;;;;5011065;28;20184;-78
2023/02/04 12:32:46;;;;;;;4.77;2.87;;;0.80;99.90;;;;;;5012273;28;20196;-75
2023/02/04 12:35:13;;;;;;;4.97;2.87;;;0.80;99.90;;;;;;5012570;28;20276;-75
2023/02/04 12:37:40;;;;;;;5.17;2.70;;;1.20;99.90;;;;;;4995055;28;20227;-79
2023/02/04 12:40:09;;;;;;;5.80;2.70;;;1.50;99.90;;;;;;5015007;28;20199;-81
2023/02/04 12:42:36;;;;;;;6.07;2.77;;;1.80;99.90;;;;;;5016134;28;20371;-78
2023/02/04 12:45:03;;;;;;;5.03;2.60;;;1.40;99.90;;;;;;4998332;28;20258;-78
2023/02/04 12:47:30;;;;;;;5.30;2.90;;;1.30;99.90;;;;;;4997829;28;20593;-78
2023/02/04 12:49:57;;;;;;;4.70;2.67;;;1.00;99.90;;;;;;4998405;28;20201;-75